Time;durP1;ratioP1;P1;durP2;ratioP2;P2;SDS_P1;SDS_P2;PMS_P1;PMS_P2;Temp;Humidity;BMP_temperature;BMP_pressure;BME280_temperature;BME280_humidity;BME280_pressure;Samples;Min_cycle;Max_cycle;Signal;HPM_P1;HPM_P2
2022/03/30 00:00:30;;;;;;;11.98;6.68;;;11.80;99.90;;;;;;6131148;23;20017;-86
2022/03/30 00:02:56;;;;;;;16.00;6.43;;;11.80;99.90;;;;;;6130726;23;20012;-86
2022/03/30 00:05:23;;;;;;;20.85;7.07;;;11.80;99.90;;;;;;6130928;23;20013;-87
2022/03/30 00:07:53;;;;;;;15.88;5.75;;;11.80;99.90;;;;;;6131107;23;20006;-86
2022/03/30 00:10:21;;;;;;;15.98;6.45;;;11.70;99.90;;;;;;6131100;23;20016;-86
2022/03/30 00:12:48;;;;;;;20.08;6.43;;;11.70;99.90;;;;;;6106560;23;20159;-86
2022/03/30 00:15:16;;;;;;;19.00;6.68;;;11.60;99.90;;;;;;6131168;23;20424;-86
2022/03/30 00:17:43;;;;;;;23.90;6.70;;;11.70;99.90;;;;;;6106928;23;20014;-86
2022/03/30 00:20:12;;;;;;;13.23;6.93;;;11.60;99.90;;;;;;6131215;23;20097;-86
2022/03/30 00:22:40;;;;;;;15.07;5.38;;;11.60;99.90;;;;;;6130813;23;20002;-86
2022/03/30 00:25:08;;;;;;;16.48;5.90;;;11.60;99.90;;;;;;6130722;23;20010;-85
2022/03/30 00:27:36;;;;;;;19.30;6.10;;;11.50;99.90;;;;;;6108647;23;20018;-85
2022/03/30 00:30:05;;;;;;;15.52;6.50;;;11.50;99.90;;;;;;6155343;23;20013;-86
2022/03/30 00:32:32;;;;;;;9.40;5.10;;;11.50;99.90;;;;;;6147638;23;20005;-86
2022/03/30 00:34:59;;;;;;;29.23;6.32;;;11.50;99.90;;;;;;6155387;23;20092;-86
2022/03/30 00:37:25;;;;;;;21.50;6.20;;;11.50;99.90;;;;;;6155478;23;20072;-86
2022/03/30 00:39:53;;;;;;;22.08;6.03;;;11.40;99.90;;;;;;6155769;23;20428;-86
2022/03/30 00:42:22;;;;;;;14.55;5.68;;;11.40;99.90;;;;;;6155300;23;20089;-85
2022/03/30 00:44:50;;;;;;;17.77;6.80;;;11.40;99.90;;;;;;6155363;23;20006;-86
2022/03/30 00:47:23;;;;;;;19.80;5.32;;;11.40;99.90;;;;;;6155536;23;20009;-86
2022/03/30 00:49:51;;;;;;;19.00;6.80;;;11.30;99.90;;;;;;6155477;23;20009;-85
2022/03/30 00:52:20;;;;;;;20.67;7.43;;;11.20;99.90;;;;;;6155143;23;20249;-85
2022/03/30 00:54:49;;;;;;;15.93;6.28;;;11.20;99.90;;;;;;6155888;23;20424;-86
2022/03/30 00:57:21;;;;;;;19.35;7.38;;;11.20;99.90;;;;;;6155343;23;20056;-86
2022/03/30 00:59:48;;;;;;;16.52;6.72;;;11.20;99.90;;;;;;6157250;23;20020;-85
2022/03/30 01:02:15;;;;;;;19.27;7.97;;;11.20;99.90;;;;;;6157954;23;20009;-85
2022/03/30 01:04:41;;;;;;;13.93;6.80;;;11.20;99.90;;;;;;6157174;23;20100;-86
2022/03/30 01:07:08;;;;;;;13.15;6.20;;;11.20;99.90;;;;;;6156978;23;20048;-86
2022/03/30 01:09:34;;;;;;;18.33;6.00;;;11.10;99.90;;;;;;6157046;23;20013;-85
2022/03/30 01:12:01;;;;;;;16.75;6.47;;;11.10;99.90;;;;;;6157006;23;20006;-86
2022/03/30 01:14:28;;;;;;;14.93;7.00;;;11.10;99.90;;;;;;6156970;23;20014;-86
2022/03/30 01:16:54;;;;;;;19.35;7.07;;;11.10;99.90;;;;;;6156968;23;20044;-86
2022/03/30 01:19:21;;;;;;;13.15;6.22;;;11.10;99.90;;;;;;6157105;23;20072;-86
2022/03/30 01:21:47;;;;;;;13.15;5.70;;;11.00;99.90;;;;;;6157224;23;20451;-86
2022/03/30 01:24:14;;;;;;;19.23;7.90;;;11.00;99.90;;;;;;6156878;23;20359;-85
2022/03/30 01:26:42;;;;;;;25.40;7.25;;;10.90;99.90;;;;;;6156714;23;20081;-86
2022/03/30 01:34:42;;;;;;;20.70;6.18;;;10.80;99.90;;;;;;6132285;23;20016;-85
2022/03/30 01:37:10;;;;;;;23.73;6.60;;;10.80;99.90;;;;;;6107719;23;20005;-86
2022/03/30 01:39:38;;;;;;;17.02;6.78;;;10.80;99.90;;;;;;6132183;23;20030;-86
2022/03/30 01:42:05;;;;;;;18.80;7.22;;;10.80;99.90;;;;;;6107991;23;20033;-86
2022/03/30 01:44:32;;;;;;;15.85;7.30;;;10.80;99.90;;;;;;6107520;23;20013;-85
2022/03/30 01:46:58;;;;;;;14.73;6.47;;;10.80;99.90;;;;;;6107831;23;20005;-86
2022/03/30 01:49:25;;;;;;;18.08;6.88;;;10.80;99.90;;;;;;6132186;23;20017;-86
2022/03/30 01:51:55;;;;;;;20.67;6.78;;;10.80;99.90;;;;;;6107626;23;20036;-86
2022/03/30 01:54:24;;;;;;;19.48;7.18;;;10.80;99.90;;;;;;6131675;23;20014;-85
2022/03/30 01:56:52;;;;;;;16.70;7.43;;;10.80;99.90;;;;;;6107688;23;20024;-86
2022/03/30 01:59:19;;;;;;;16.50;6.38;;;10.70;99.90;;;;;;6131964;23;20060;-86
2022/03/30 02:01:47;;;;;;;16.25;6.38;;;10.70;99.90;;;;;;6107844;23;20002;-85
2022/03/30 02:04:14;;;;;;;22.70;7.40;;;10.70;99.90;;;;;;6107635;23;20013;-86
2022/03/30 02:06:41;;;;;;;15.45;6.45;;;10.70;99.90;;;;;;6107506;23;20026;-85
2022/03/30 02:09:12;;;;;;;15.95;6.25;;;10.60;99.90;;;;;;6131651;23;20009;-86
2022/03/30 02:11:40;;;;;;;16.63;6.70;;;10.60;99.90;;;;;;6131828;23;20009;-85
2022/03/30 02:14:07;;;;;;;26.58;6.18;;;10.60;99.90;;;;;;6131825;23;20001;-86
2022/03/30 02:16:33;;;;;;;17.50;6.00;;;10.60;99.90;;;;;;6131849;23;20010;-85
2022/03/30 02:19:00;;;;;;;13.07;5.78;;;10.60;99.90;;;;;;6107388;23;20013;-85
2022/03/30 02:21:27;;;;;;;18.38;6.25;;;10.60;99.90;;;;;;6131802;23;20014;-86
2022/03/30 02:23:53;;;;;;;13.95;5.50;;;10.60;99.90;;;;;;6107532;23;20005;-86
2022/03/30 02:26:20;;;;;;;26.27;6.32;;;10.50;99.90;;;;;;6131975;23;20016;-86
2022/03/30 02:28:53;;;;;;;18.42;6.63;;;10.50;99.90;;;;;;6131558;23;20068;-85
2022/03/30 02:31:22;;;;;;;19.73;6.65;;;10.50;99.90;;;;;;6156324;23;20317;-85
2022/03/30 02:33:48;;;;;;;17.55;7.75;;;10.50;99.90;;;;;;6156132;23;20343;-85
2022/03/30 02:36:16;;;;;;;24.13;7.40;;;10.50;99.90;;;;;;6156217;23;20037;-85
2022/03/30 02:38:43;;;;;;;22.83;7.65;;;10.50;99.90;;;;;;6156164;23;20092;-85
2022/03/30 02:41:11;;;;;;;16.08;6.60;;;10.50;99.90;;;;;;6156116;23;20010;-85
2022/03/30 02:43:40;;;;;;;13.32;6.88;;;10.50;99.90;;;;;;6156416;23;20309;-86
2022/03/30 02:46:06;;;;;;;16.48;5.97;;;10.50;99.90;;;;;;6156143;23;20009;-85
2022/03/30 02:48:35;;;;;;;11.40;5.88;;;10.40;99.90;;;;;;6156326;23;20013;-86
2022/03/30 02:51:05;;;;;;;18.52;6.68;;;10.40;99.90;;;;;;6180960;23;20083;-85
2022/03/30 02:53:33;;;;;;;24.90;6.72;;;10.40;99.90;;;;;;6156006;23;20017;-85
2022/03/30 02:56:00;;;;;;;12.55;5.90;;;10.40;99.90;;;;;;6156066;23;20005;-86
2022/03/30 02:58:28;;;;;;;20.00;6.55;;;10.40;99.90;;;;;;6155872;23;20024;-86
2022/03/30 03:00:55;;;;;;;15.57;6.07;;;10.40;99.90;;;;;;6155943;23;20016;-85
2022/03/30 03:03:24;;;;;;;16.77;5.35;;;10.40;99.90;;;;;;6155961;23;20009;-85
2022/03/30 03:05:50;;;;;;;16.15;5.97;;;10.40;99.90;;;;;;6156221;23;20001;-85
2022/03/30 03:08:17;;;;;;;24.38;6.43;;;10.40;99.90;;;;;;6155922;23;20016;-85
2022/03/30 03:10:47;;;;;;;23.45;6.25;;;10.40;99.90;;;;;;6156023;23;20009;-85
2022/03/30 03:13:16;;;;;;;13.25;5.75;;;10.40;99.90;;;;;;6155707;23;20020;-85
2022/03/30 03:15:46;;;;;;;17.08;7.63;;;10.40;99.90;;;;;;6156236;23;20095;-85
2022/03/30 03:18:13;;;;;;;19.83;7.20;;;10.40;99.90;;;;;;6180584;23;20096;-85
2022/03/30 03:20:45;;;;;;;20.10;6.35;;;10.40;99.90;;;;;;6155749;23;20001;-85
2022/03/30 03:23:13;;;;;;;18.38;6.93;;;10.30;99.90;;;;;;6155720;23;20010;-86
2022/03/30 03:25:41;;;;;;;19.98;6.43;;;10.30;99.90;;;;;;6156000;23;20006;-85
2022/03/30 03:28:10;;;;;;;18.02;5.93;;;10.30;99.90;;;;;;6155538;23;20025;-85
2022/03/30 03:30:37;;;;;;;17.42;6.55;;;10.30;99.90;;;;;;6155662;23;20041;-86
2022/03/30 03:33:05;;;;;;;16.92;7.28;;;10.20;99.90;;;;;;6131210;23;20009;-85
2022/03/30 03:35:32;;;;;;;14.02;6.50;;;10.20;99.90;;;;;;6106564;23;20053;-84
2022/03/30 03:38:00;;;;;;;13.65;6.00;;;10.30;99.90;;;;;;6131151;23;20021;-86
2022/03/30 03:40:27;;;;;;;16.15;6.10;;;10.30;99.90;;;;;;6106647;23;20012;-86
2022/03/30 03:42:54;;;;;;;14.88;5.72;;;10.30;99.90;;;;;;6131373;23;20010;-86
2022/03/30 03:45:20;;;;;;;10.50;4.90;;;10.20;99.90;;;;;;6131304;23;20435;-86
2022/03/30 03:47:48;;;;;;;19.00;6.00;;;10.30;99.90;;;;;;6131308;23;20012;-86
2022/03/30 03:50:14;;;;;;;14.07;6.60;;;10.20;99.90;;;;;;6131078;23;20002;-87
2022/03/30 03:52:41;;;;;;;15.50;5.55;;;10.20;99.90;;;;;;6131045;23;20016;-86
2022/03/30 03:55:11;;;;;;;16.95;6.80;;;10.20;99.90;;;;;;6131087;23;20005;-87
2022/03/30 03:57:41;;;;;;;24.65;6.28;;;10.30;99.90;;;;;;6131175;23;20021;-87
2022/03/30 04:00:10;;;;;;;16.15;6.10;;;10.30;99.90;;;;;;6132180;23;20432;-86
2022/03/30 04:02:41;;;;;;;19.52;6.78;;;10.20;99.90;;;;;;6107149;23;20013;-86
2022/03/30 04:05:09;;;;;;;19.85;6.18;;;10.20;99.90;;;;;;6131205;23;20010;-86
2022/03/30 04:07:38;;;;;;;23.02;6.63;;;10.30;99.90;;;;;;6106554;23;20084;-84
2022/03/30 04:10:06;;;;;;;12.20;6.93;;;10.20;99.90;;;;;;6130877;23;20436;-83
2022/03/30 04:12:33;;;;;;;18.15;5.85;;;10.20;99.90;;;;;;6106013;23;20013;-83
2022/03/30 04:15:00;;;;;;;19.00;6.28;;;10.30;99.90;;;;;;6156549;23;20033;-83
2022/03/30 04:17:26;;;;;;;19.10;7.28;;;10.30;99.90;;;;;;6130632;23;20017;-86
2022/03/30 04:19:52;;;;;;;20.77;6.38;;;10.30;99.90;;;;;;6130974;23;20363;-87
2022/03/30 04:22:19;;;;;;;19.00;6.47;;;10.30;99.90;;;;;;6130947;23;20008;-85
2022/03/30 04:24:45;;;;;;;22.77;8.68;;;10.30;99.90;;;;;;6130985;23;20009;-86
2022/03/30 04:27:11;;;;;;;30.65;10.80;;;10.30;99.90;;;;;;6134577;23;20014;-84
2022/03/30 04:29:38;;;;;;;37.63;11.50;;;10.20;99.90;;;;;;6163772;23;20439;-84
2022/03/30 04:32:05;;;;;;;28.98;10.20;;;10.30;99.90;;;;;;6160410;23;20016;-87
2022/03/30 04:34:31;;;;;;;24.08;9.90;;;10.30;99.90;;;;;;6186834;23;20012;-86
2022/03/30 04:36:58;;;;;;;26.42;8.48;;;10.30;99.90;;;;;;6162005;23;20087;-88
2022/03/30 04:39:24;;;;;;;23.58;8.80;;;10.30;99.90;;;;;;6162235;23;20095;-87
2022/03/30 04:41:51;;;;;;;23.58;9.13;;;10.30;99.90;;;;;;6162293;23;20032;-86
2022/03/30 04:44:20;;;;;;;16.60;7.10;;;10.30;99.90;;;;;;6162012;23;20005;-87
2022/03/30 04:46:47;;;;;;;14.23;7.25;;;10.30;99.90;;;;;;6162141;23;20009;-86
2022/03/30 04:49:13;;;;;;;17.42;7.70;;;10.30;99.90;;;;;;6162200;23;20059;-88
2022/03/30 04:51:39;;;;;;;19.63;6.78;;;10.40;99.90;;;;;;6162046;23;20036;-87
2022/03/30 04:54:06;;;;;;;36.90;8.63;;;10.40;99.90;;;;;;6162020;23;20076;-88
2022/03/30 04:56:32;;;;;;;19.98;7.57;;;10.40;99.90;;;;;;6162148;23;20009;-87
2022/03/30 04:58:59;;;;;;;14.85;7.30;;;10.40;99.90;;;;;;6162198;23;20020;-88
2022/03/30 05:01:25;;;;;;;19.08;6.50;;;10.50;99.90;;;;;;6161943;23;20009;-87
2022/03/30 05:03:52;;;;;;;21.42;6.75;;;10.50;99.90;;;;;;6161725;23;20703;-89
2022/03/30 05:06:18;;;;;;;15.88;6.53;;;10.50;99.90;;;;;;6162104;23;20012;-88
2022/03/30 05:08:46;;;;;;;16.60;7.50;;;10.50;99.90;;;;;;6162211;23;20414;-92
2022/03/30 05:11:13;;;;;;;17.98;7.10;;;10.50;99.90;;;;;;6162136;23;20001;-88
2022/03/30 05:13:40;;;;;;;15.32;6.68;;;10.50;99.90;;;;;;6161852;23;20017;-88
2022/03/30 05:16:06;;;;;;;26.52;9.52;;;10.50;99.90;;;;;;6161859;23;20028;-87
2022/03/30 05:18:32;;;;;;;32.80;13.32;;;10.60;99.90;;;;;;6161728;23;20017;-88
2022/03/30 05:20:59;;;;;;;48.80;17.65;;;10.60;99.90;;;;;;6161921;23;20028;-88
2022/03/30 05:23:25;;;;;;;32.53;15.05;;;10.70;99.90;;;;;;6161700;23;20451;-88
2022/03/30 05:25:52;;;;;;;37.50;14.95;;;10.70;99.90;;;;;;6162072;23;20009;-87
2022/03/30 05:28:18;;;;;;;34.33;12.77;;;10.70;99.90;;;;;;6172447;23;20024;-88
2022/03/30 05:30:44;;;;;;;32.33;11.93;;;10.70;99.90;;;;;;6186648;23;20016;-87
2022/03/30 05:33:11;;;;;;;23.17;9.43;;;10.70;99.90;;;;;;6186537;23;20083;-86
2022/03/30 05:35:38;;;;;;;23.13;10.45;;;10.80;99.90;;;;;;6161620;23;20009;-88
2022/03/30 05:38:05;;;;;;;27.50;12.63;;;10.80;99.90;;;;;;6161349;23;20117;-92
2022/03/30 05:40:31;;;;;;;28.02;10.95;;;10.90;99.90;;;;;;6157319;23;20035;-88
2022/03/30 05:42:58;;;;;;;44.97;15.50;;;10.90;99.90;;;;;;6161584;23;20015;-88
2022/03/30 05:45:24;;;;;;;58.40;19.10;;;11.00;99.90;;;;;;6185937;23;20005;-86
2022/03/30 05:47:50;;;;;;;85.88;22.63;;;11.00;99.90;;;;;;6186414;23;20060;-88
2022/03/30 05:50:17;;;;;;;46.08;12.23;;;11.10;99.90;;;;;;6186399;23;20423;-86
2022/03/30 05:52:44;;;;;;;27.73;10.63;;;11.20;99.90;;;;;;6161500;23;20012;-88
2022/03/30 05:55:10;;;;;;;27.20;9.68;;;11.20;99.90;;;;;;6161521;23;20009;-87
2022/03/30 05:57:37;;;;;;;30.02;9.10;;;11.20;99.90;;;;;;6161207;23;20020;-87
2022/03/30 06:00:07;;;;;;;20.38;8.38;;;11.30;99.90;;;;;;6161094;23;20087;-88
2022/03/30 06:02:40;;;;;;;28.77;11.65;;;11.40;99.90;;;;;;6186267;23;20013;-87
2022/03/30 06:05:07;;;;;;;20.90;10.27;;;11.40;99.90;;;;;;6186110;23;20075;-87
2022/03/30 06:07:33;;;;;;;22.63;7.38;;;11.50;99.90;;;;;;6161500;23;20012;-87
2022/03/30 06:10:00;;;;;;;14.05;6.72;;;11.50;99.90;;;;;;6161427;23;20009;-87
2022/03/30 06:12:26;;;;;;;16.50;6.85;;;11.60;99.90;;;;;;6161273;23;20071;-87
2022/03/30 06:14:53;;;;;;;20.48;6.38;;;11.60;99.90;;;;;;6161414;23;20339;-87
2022/03/30 06:17:20;;;;;;;28.63;7.03;;;11.60;99.90;;;;;;6161143;23;20428;-87
2022/03/30 06:19:49;;;;;;;17.35;5.85;;;11.80;99.90;;;;;;6161289;23;20009;-87
2022/03/30 06:22:16;;;;;;;18.63;7.22;;;11.80;99.90;;;;;;6161262;23;20013;-87
2022/03/30 06:24:43;;;;;;;20.77;6.68;;;11.90;99.90;;;;;;6160929;23;20009;-87
2022/03/30 06:27:11;;;;;;;11.18;4.85;;;11.90;99.90;;;;;;6161135;23;20009;-88
2022/03/30 06:29:39;;;;;;;15.75;6.88;;;11.90;99.90;;;;;;6161526;23;20009;-87
2022/03/30 06:32:06;;;;;;;14.85;5.35;;;12.00;99.90;;;;;;6161463;23;20013;-87
2022/03/30 06:34:33;;;;;;;17.58;5.35;;;12.10;99.90;;;;;;6160974;23;20087;-87
2022/03/30 06:37:00;;;;;;;19.15;6.18;;;12.20;99.90;;;;;;6160841;23;20005;-87
2022/03/30 06:39:26;;;;;;;17.20;6.13;;;12.30;99.90;;;;;;6160949;23;20021;-87
2022/03/30 06:41:53;;;;;;;9.77;4.63;;;12.30;99.90;;;;;;6161111;23;20064;-86
2022/03/30 06:44:20;;;;;;;17.85;5.32;;;12.40;99.90;;;;;;6160869;23;20015;-87
2022/03/30 06:46:46;;;;;;;47.70;6.57;;;12.60;99.90;;;;;;6161260;23;20005;-88
2022/03/30 06:49:14;;;;;;;14.82;5.32;;;12.60;99.90;;;;;;6161089;23;20009;-87
2022/03/30 06:51:41;;;;;;;11.45;4.72;;;12.80;99.90;;;;;;6160824;23;20083;-88
2022/03/30 06:54:07;;;;;;;12.10;4.88;;;12.90;99.90;;;;;;6160972;23;20012;-87
2022/03/30 06:56:34;;;;;;;20.60;5.43;;;13.00;99.90;;;;;;6160740;23;20009;-88
2022/03/30 06:59:00;;;;;;;9.20;3.17;;;13.10;99.90;;;;;;6185563;23;20017;-87
2022/03/30 07:01:27;;;;;;;14.38;3.97;;;13.30;99.90;;;;;;6162850;23;20080;-87
2022/03/30 07:03:54;;;;;;;7.93;3.70;;;13.40;99.90;;;;;;6160582;23;20009;-87
2022/03/30 07:06:20;;;;;;;14.15;5.40;;;13.40;99.90;;;;;;6161020;23;20005;-87
2022/03/30 07:11:32;;;;;;;17.05;5.25;;;13.50;99.90;;;;;;6185546;23;20005;-86
2022/03/30 07:14:00;;;;;;;5.82;3.70;;;13.60;99.90;;;;;;6160695;23;20036;-86
2022/03/30 07:16:26;;;;;;;11.60;4.13;;;13.60;99.90;;;;;;6160627;23;20009;-85
2022/03/30 07:18:54;;;;;;;12.55;3.63;;;13.70;99.90;;;;;;6160455;23;20025;-86
2022/03/30 07:21:20;;;;;;;17.92;3.78;;;13.70;99.90;;;;;;6160810;23;20032;-87
2022/03/30 07:23:47;;;;;;;15.98;5.35;;;13.80;99.90;;;;;;6185210;23;20013;-88
2022/03/30 07:26:14;;;;;;;13.50;3.67;;;13.80;99.90;;;;;;6160719;23;20008;-87
2022/03/30 07:28:40;;;;;;;13.02;3.63;;;13.90;99.90;;;;;;6155340;23;20043;-87
2022/03/30 07:31:07;;;;;;;16.52;4.65;;;14.00;99.90;;;;;;6131176;23;20463;-86
2022/03/30 07:33:34;;;;;;;14.35;4.32;;;14.00;99.90;;;;;;6106702;23;20013;-86
2022/03/30 07:36:00;;;;;;;8.60;3.33;;;14.10;99.90;;;;;;6131146;23;20076;-86
2022/03/30 07:38:27;;;;;;;10.38;3.75;;;14.10;99.90;;;;;;6130942;23;20079;-86
2022/03/30 07:40:54;;;;;;;12.90;4.30;;;14.10;99.90;;;;;;6130903;23;20045;-88
2022/03/30 07:43:21;;;;;;;17.65;4.32;;;14.30;99.90;;;;;;6133165;23;20016;-85
2022/03/30 07:45:47;;;;;;;9.95;3.45;;;14.40;99.90;;;;;;6106681;23;20458;-86
2022/03/30 07:48:14;;;;;;;19.42;4.28;;;14.50;99.90;;;;;;6131039;23;20014;-87
2022/03/30 07:50:41;;;;;;;6.30;4.18;;;14.60;99.90;;;;;;6131094;23;20006;-87
2022/03/30 07:53:08;;;;;;;13.73;4.80;;;14.70;99.90;;;;;;6131027;23;20058;-87
2022/03/30 07:55:38;;;;;;;11.02;4.68;;;14.80;99.90;;;;;;6130948;23;20460;-89
2022/03/30 07:58:06;;;;;;;12.30;4.30;;;15.00;99.90;;;;;;6106597;23;20595;-88
2022/03/30 08:00:34;;;;;;;13.88;4.70;;;15.10;99.90;;;;;;6131015;23;20128;-87
2022/03/30 08:03:01;;;;;;;13.68;4.15;;;15.10;99.90;;;;;;6131057;23;20136;-87
2022/03/30 08:05:28;;;;;;;13.57;4.35;;;15.20;99.90;;;;;;6131308;23;20056;-88
2022/03/30 08:07:55;;;;;;;15.50;4.65;;;15.20;99.90;;;;;;6107147;23;20002;-88
2022/03/30 08:10:22;;;;;;;11.32;4.18;;;15.20;99.90;;;;;;6132969;23;20010;-87
2022/03/30 08:12:49;;;;;;;10.70;3.95;;;15.40;99.90;;;;;;6108629;23;20002;-87
2022/03/30 08:15:17;;;;;;;19.35;4.00;;;15.40;99.90;;;;;;6132986;23;20021;-90
2022/03/30 08:17:44;;;;;;;11.18;4.25;;;15.40;99.90;;;;;;6108632;23;20084;-90
2022/03/30 08:22:25;;;;;;;12.88;4.70;;;15.50;99.90;;;;;;6132918;23;20009;-89
2022/03/30 08:23:01;;;;;;;20.17;4.68;;;15.40;99.90;;;;;;6157601;23;20093;-88
2022/03/30 08:25:28;;;;;;;16.17;4.15;;;15.60;99.90;;;;;;6108540;23;20002;-88
2022/03/30 08:27:55;;;;;;;14.05;4.05;;;15.70;99.90;;;;;;6132914;23;20049;-88
2022/03/30 08:30:22;;;;;;;17.95;4.97;;;15.80;99.90;;;;;;6158593;23;20059;-88
2022/03/30 08:32:48;;;;;;;25.92;5.00;;;16.00;99.90;;;;;;6157408;23;20076;-88
2022/03/30 08:35:15;;;;;;;19.55;4.57;;;16.00;99.90;;;;;;6159543;23;20055;-89
2022/03/30 08:37:42;;;;;;;15.43;3.95;;;16.10;99.90;;;;;;6157554;23;20455;-89
2022/03/30 08:40:09;;;;;;;9.30;3.72;;;16.30;99.90;;;;;;6157773;23;20005;-88
2022/03/30 08:42:38;;;;;;;18.85;4.30;;;16.30;99.90;;;;;;6157965;23;20041;-88
2022/03/30 08:45:07;;;;;;;11.57;3.60;;;16.40;99.90;;;;;;6157129;23;20010;-88
2022/03/30 08:47:35;;;;;;;15.18;3.38;;;16.70;99.90;;;;;;6157260;23;20057;-89
2022/03/30 08:50:03;;;;;;;8.10;3.20;;;16.90;99.90;;;;;;6157069;23;20013;-89
2022/03/30 08:52:30;;;;;;;16.60;4.90;;;16.90;99.90;;;;;;6156959;23;20025;-89
2022/03/30 08:54:59;;;;;;;16.42;3.85;;;16.80;99.90;;;;;;6156944;23;20009;-89
2022/03/30 08:57:26;;;;;;;21.30;5.03;;;16.80;99.90;;;;;;6156923;23;20347;-89
2022/03/30 09:00:12;;;;;;;9.88;3.90;;;16.80;99.90;;;;;;6157171;23;20009;-88
2022/03/30 09:02:42;;;;;;;18.67;4.28;;;16.70;99.90;;;;;;6157948;23;20014;-89
2022/03/30 09:05:25;;;;;;;12.88;3.60;;;16.70;99.90;;;;;;6158765;23;20014;-89
2022/03/30 09:07:56;;;;;;;13.05;4.82;;;16.70;99.90;;;;;;6157043;23;20018;-88
2022/03/30 09:10:30;;;;;;;15.68;4.15;;;16.60;99.90;;;;;;6157141;23;20009;-89
2022/03/30 09:13:07;;;;;;;13.80;3.85;;;16.40;99.90;;;;;;6157170;23;20005;-88
2022/03/30 09:15:35;;;;;;;17.75;4.78;;;16.20;99.90;;;;;;6156988;23;20060;-88
2022/03/30 09:18:06;;;;;;;16.75;3.88;;;16.20;99.90;;;;;;6156983;23;20013;-89
2022/03/30 09:20:34;;;;;;;18.95;4.28;;;16.30;99.90;;;;;;6157080;23;20101;-89
2022/03/30 09:23:01;;;;;;;25.83;4.80;;;16.30;99.90;;;;;;6157268;23;20010;-89
2022/03/30 09:25:30;;;;;;;13.18;5.03;;;16.30;99.90;;;;;;6156908;23;20076;-88
2022/03/30 09:27:59;;;;;;;18.27;3.85;;;16.40;99.90;;;;;;6156310;23;20104;-88
2022/03/30 09:30:28;;;;;;;28.63;5.03;;;16.40;99.90;;;;;;6132407;23;20013;-89
2022/03/30 09:32:58;;;;;;;14.30;3.83;;;16.40;99.90;;;;;;6132212;23;20016;-86
2022/03/30 09:35:30;;;;;;;16.70;3.80;;;16.40;99.90;;;;;;6132040;23;20009;-86
2022/03/30 09:38:09;;;;;;;18.15;4.35;;;16.40;99.90;;;;;;6132374;23;20018;-85
2022/03/30 09:40:46;;;;;;;21.00;3.88;;;16.30;99.90;;;;;;6107378;23;20006;-85
2022/03/30 09:43:19;;;;;;;13.95;4.00;;;16.30;99.90;;;;;;6131837;23;20013;-85
2022/03/30 09:45:49;;;;;;;17.35;4.85;;;16.30;99.90;;;;;;6131775;23;20009;-85
2022/03/30 09:48:27;;;;;;;14.95;4.70;;;16.40;99.90;;;;;;6131476;23;20061;-85
2022/03/30 09:50:55;;;;;;;10.45;3.97;;;16.50;99.90;;;;;;6131902;23;20005;-84
2022/03/30 09:53:26;;;;;;;22.73;5.20;;;16.60;99.90;;;;;;6106860;23;20012;-84
2022/03/30 09:55:52;;;;;;;23.38;5.97;;;16.60;99.90;;;;;;6131545;23;20029;-85
2022/03/30 09:58:23;;;;;;;14.52;4.13;;;16.80;99.90;;;;;;6106773;23;20021;-84
2022/03/30 10:01:10;;;;;;;18.85;5.30;;;16.80;99.90;;;;;;6131187;23;20096;-84
2022/03/30 10:03:51;;;;;;;30.50;8.52;;;16.90;99.90;;;;;;6131002;23;20014;-84
2022/03/30 10:06:23;;;;;;;26.83;8.75;;;17.00;99.90;;;;;;6131258;23;20009;-85
2022/03/30 10:08:52;;;;;;;30.38;10.02;;;17.10;99.90;;;;;;6131625;23;20435;-85
2022/03/30 10:11:21;;;;;;;23.50;5.55;;;17.00;99.90;;;;;;6131512;23;20026;-84
2022/03/30 10:13:55;;;;;;;15.27;5.88;;;17.00;99.90;;;;;;6131281;23;20045;-84
2022/03/30 10:16:23;;;;;;;15.70;5.32;;;17.00;99.90;;;;;;6108343;23;20072;-91
2022/03/30 10:18:51;;;;;;;19.35;6.57;;;17.00;99.90;;;;;;6106838;23;20016;-91
2022/03/30 10:21:37;;;;;;;29.63;9.57;;;16.90;99.90;;;;;;6132185;23;20016;-90
2022/03/30 10:24:22;;;;;;;17.25;5.20;;;16.90;99.90;;;;;;6132002;23;20424;-89
2022/03/30 10:27:12;;;;;;;17.25;4.93;;;16.90;99.90;;;;;;6107568;23;20399;-89
2022/03/30 10:29:53;;;;;;;30.13;7.22;;;16.90;99.90;;;;;;6132853;23;20025;-90
2022/03/30 10:32:25;;;;;;;19.52;8.20;;;17.10;99.90;;;;;;6131616;23;20012;-89
2022/03/30 10:34:56;;;;;;;22.75;4.85;;;17.20;99.90;;;;;;6132019;23;20088;-90
2022/03/30 10:37:30;;;;;;;12.93;3.70;;;17.20;99.90;;;;;;6107824;23;20047;-89
2022/03/30 10:40:09;;;;;;;13.95;4.55;;;17.20;99.90;;;;;;6132271;23;20071;-90
2022/03/30 10:42:47;;;;;;;21.17;6.28;;;17.20;99.90;;;;;;6135412;23;20020;-89
2022/03/30 10:45:29;;;;;;;29.77;6.13;;;17.10;99.90;;;;;;6111232;23;20100;-90
2022/03/30 10:48:11;;;;;;;22.40;4.97;;;17.10;99.90;;;;;;6106865;23;20019;-90
2022/03/30 10:51:13;;;;;;;15.30;4.57;;;17.20;99.90;;;;;;6131377;23;20084;-90
2022/03/30 10:53:51;;;;;;;23.05;5.30;;;17.30;99.90;;;;;;6106874;23;20016;-90
2022/03/30 10:56:22;;;;;;;17.30;4.47;;;17.30;99.90;;;;;;6131507;23;20006;-90
2022/03/30 10:58:58;;;;;;;21.52;4.30;;;17.30;99.90;;;;;;6131404;23;20048;-90
2022/03/30 11:01:33;;;;;;;20.70;5.05;;;17.20;99.90;;;;;;6106819;23;20017;-91
2022/03/30 11:04:18;;;;;;;26.38;5.75;;;17.30;99.90;;;;;;6131165;23;20076;-92
2022/03/30 11:07:06;;;;;;;20.50;4.63;;;17.40;99.90;;;;;;6131428;23;20051;-92
2022/03/30 11:09:36;;;;;;;14.85;4.95;;;17.40;99.90;;;;;;6107156;23;20044;-93
2022/03/30 11:12:12;;;;;;;20.50;4.80;;;17.50;99.90;;;;;;6131126;23;20006;-90
2022/03/30 11:15:03;;;;;;;25.13;5.13;;;17.70;99.90;;;;;;6131513;23;20084;-92
2022/03/30 11:17:39;;;;;;;19.55;5.60;;;17.60;99.90;;;;;;6131048;23;20010;-92
2022/03/30 11:20:09;;;;;;;17.55;4.03;;;17.60;99.90;;;;;;6131196;23;20009;-91
2022/03/30 11:22:39;;;;;;;12.85;4.82;;;17.60;99.90;;;;;;6130994;23;20001;-92
2022/03/30 11:25:26;;;;;;;20.75;4.43;;;17.50;99.90;;;;;;6131149;23;20017;-92
2022/03/30 11:27:59;;;;;;;19.13;4.32;;;17.20;99.90;;;;;;6131197;23;20092;-89
2022/03/30 11:30:31;;;;;;;28.48;4.97;;;17.10;99.90;;;;;;6155849;23;20065;-90
2022/03/30 11:33:13;;;;;;;26.33;4.93;;;17.00;99.90;;;;;;6180585;23;20372;-89
2022/03/30 11:35:43;;;;;;;20.73;5.85;;;16.90;99.90;;;;;;6155780;23;20013;-90
2022/03/30 11:38:24;;;;;;;21.27;5.03;;;16.80;99.90;;;;;;6155603;23;20415;-92
2022/03/30 11:41:05;;;;;;;22.85;6.05;;;16.80;99.90;;;;;;6155710;23;20009;-89
2022/03/30 11:46:27;;;;;;;25.92;5.60;;;16.70;99.90;;;;;;6180280;23;20084;-89
2022/03/30 11:48:58;;;;;;;12.93;4.72;;;16.60;99.90;;;;;;6180352;23;20069;-91
2022/03/30 11:51:26;;;;;;;20.63;6.38;;;16.60;99.90;;;;;;6155426;23;20049;-91
2022/03/30 11:54:17;;;;;;;23.00;5.28;;;16.60;99.90;;;;;;6155500;23;20005;-93
2022/03/30 11:56:50;;;;;;;14.40;4.43;;;16.50;99.90;;;;;;6155910;23;20052;-90
2022/03/30 11:59:19;;;;;;;27.80;6.55;;;16.30;99.90;;;;;;6155785;23;20076;-90
2022/03/30 12:01:45;;;;;;;21.98;4.35;;;16.30;99.90;;;;;;6155367;23;20036;-90
2022/03/30 12:04:13;;;;;;;28.42;5.47;;;16.30;99.90;;;;;;6155426;23;20017;-90
2022/03/30 12:06:49;;;;;;;24.17;5.22;;;16.30;99.90;;;;;;6155541;23;20005;-88
2022/03/30 12:09:16;;;;;;;21.52;4.70;;;16.30;99.90;;;;;;6155572;23;20020;-90
2022/03/30 12:11:43;;;;;;;21.45;5.63;;;16.30;99.90;;;;;;6155640;23;20321;-88
2022/03/30 12:14:11;;;;;;;24.42;6.10;;;16.20;99.90;;;;;;6155510;23;20009;-88
2022/03/30 12:16:38;;;;;;;14.88;4.32;;;16.20;99.90;;;;;;6155572;23;20013;-90
2022/03/30 12:19:06;;;;;;;16.90;4.95;;;16.20;99.90;;;;;;6155561;23;20194;-86
2022/03/30 12:21:34;;;;;;;26.33;5.15;;;16.20;99.90;;;;;;6155428;23;20001;-87
2022/03/30 12:24:04;;;;;;;39.95;6.28;;;16.20;99.90;;;;;;6155373;23;20069;-90
2022/03/30 12:26:31;;;;;;;24.48;5.25;;;16.30;99.90;;;;;;6155587;23;20057;-93
2022/03/30 12:29:07;;;;;;;18.70;4.22;;;16.30;99.90;;;;;;6155570;23;20466;-91
2022/03/30 12:31:49;;;;;;;21.30;4.95;;;16.40;99.90;;;;;;6131597;23;20428;-90
2022/03/30 12:34:17;;;;;;;24.85;4.63;;;16.40;99.90;;;;;;6131147;23;20092;-92
2022/03/30 12:36:49;;;;;;;20.17;5.25;;;16.40;99.90;;;;;;6131024;23;20060;-89
2022/03/30 12:39:17;;;;;;;28.08;5.57;;;16.40;99.90;;;;;;6130688;23;20049;-92
2022/03/30 12:41:54;;;;;;;32.35;5.10;;;16.40;99.90;;;;;;6131566;23;20002;-92
2022/03/30 12:44:20;;;;;;;17.75;4.35;;;16.30;99.90;;;;;;6133268;23;20017;-90
2022/03/30 12:46:47;;;;;;;15.68;4.82;;;16.30;99.90;;;;;;6106744;23;20470;-90
2022/03/30 12:49:13;;;;;;;19.33;4.50;;;16.30;99.90;;;;;;6108455;23;20005;-91
2022/03/30 12:51:40;;;;;;;23.73;5.20;;;16.20;99.90;;;;;;6133602;23;20520;-90
2022/03/30 12:54:20;;;;;;;22.65;5.30;;;16.10;99.90;;;;;;6131294;23;20033;-91
2022/03/30 12:56:47;;;;;;;19.80;4.65;;;16.30;99.90;;;;;;6132717;23;20017;-90